sensor_id;sensor_type;location;lat;lon;timestamp;P1;durP1;ratioP1;P2;durP2;ratioP2
23866;SDS011;12114;53.404;-1.502;2023-03-01T00:00:10;12.05;;;7.22;;
23866;SDS011;12114;53.404;-1.502;2023-03-01T00:02:35;13.10;;;7.07;;
23866;SDS011;12114;53.404;-1.502;2023-03-01T00:05:01;15.60;;;6.97;;
23866;SDS011;12114;53.404;-1.502;2023-03-01T00:07:26;16.58;;;6.85;;
23866;SDS011;12114;53.404;-1.502;2023-03-01T00:09:52;13.35;;;5.90;;
23866;SDS011;12114;53.404;-1.502;2023-03-01T00:12:17;12.10;;;6.35;;
23866;SDS011;12114;53.404;-1.502;2023-03-01T00:14:42;14.93;;;5.82;;
23866;SDS011;12114;53.404;-1.502;2023-03-01T00:17:07;12.85;;;5.65;;
23866;SDS011;12114;53.404;-1.502;2023-03-01T00:19:33;15.02;;;5.35;;
23866;SDS011;12114;53.404;-1.502;2023-03-01T00:21:58;14.93;;;5.10;;
23866;SDS011;12114;53.404;-1.502;2023-03-01T00:24:24;11.32;;;4.32;;
23866;SDS011;12114;53.404;-1.502;2023-03-01T00:26:52;11.82;;;4.40;;
23866;SDS011;12114;53.404;-1.502;2023-03-01T00:29:17;8.52;;;4.25;;
23866;SDS011;12114;53.404;-1.502;2023-03-01T00:31:43;11.60;;;4.32;;
23866;SDS011;12114;53.404;-1.502;2023-03-01T00:34:08;9.82;;;4.40;;
23866;SDS011;12114;53.404;-1.502;2023-03-01T00:36:35;11.88;;;5.10;;
23866;SDS011;12114;53.404;-1.502;2023-03-01T00:39:01;12.75;;;5.43;;
23866;SDS011;12114;53.404;-1.502;2023-03-01T00:41:28;11.77;;;6.18;;
23866;SDS011;12114;53.404;-1.502;2023-03-01T00:43:53;10.25;;;6.00;;
23866;SDS011;12114;53.404;-1.502;2023-03-01T00:46:19;13.38;;;6.82;;
23866;SDS011;12114;53.404;-1.502;2023-03-01T00:48:45;17.08;;;7.18;;
23866;SDS011;12114;53.404;-1.502;2023-03-01T00:51:12;11.63;;;5.75;;
23866;SDS011;12114;53.404;-1.502;2023-03-01T00:53:39;10.80;;;5.93;;
23866;SDS011;12114;53.404;-1.502;2023-03-01T00:56:05;15.27;;;6.60;;
23866;SDS011;12114;53.404;-1.502;2023-03-01T00:58:31;13.25;;;6.53;;
23866;SDS011;12114;53.404;-1.502;2023-03-01T01:00:56;13.90;;;6.90;;
23866;SDS011;12114;53.404;-1.502;2023-03-01T01:03:21;15.77;;;7.60;;
23866;SDS011;12114;53.404;-1.502;2023-03-01T01:05:47;13.70;;;7.57;;
23866;SDS011;12114;53.404;-1.502;2023-03-01T01:08:12;14.02;;;7.10;;
23866;SDS011;12114;53.404;-1.502;2023-03-01T01:10:37;12.60;;;6.93;;
23866;SDS011;12114;53.404;-1.502;2023-03-01T01:13:03;19.20;;;6.72;;
23866;SDS011;12114;53.404;-1.502;2023-03-01T01:15:28;15.73;;;6.22;;
23866;SDS011;12114;53.404;-1.502;2023-03-01T01:17:54;13.38;;;5.63;;
23866;SDS011;12114;53.404;-1.502;2023-03-01T01:20:38;13.85;;;5.35;;
23866;SDS011;12114;53.404;-1.502;2023-03-01T01:23:04;11.00;;;5.88;;
23866;SDS011;12114;53.404;-1.502;2023-03-01T01:25:30;10.38;;;5.95;;
23866;SDS011;12114;53.404;-1.502;2023-03-01T01:27:55;11.43;;;5.35;;
23866;SDS011;12114;53.404;-1.502;2023-03-01T01:30:21;10.82;;;4.90;;
23866;SDS011;12114;53.404;-1.502;2023-03-01T01:32:46;12.27;;;5.32;;
23866;SDS011;12114;53.404;-1.502;2023-03-01T01:35:11;11.98;;;5.65;;
23866;SDS011;12114;53.404;-1.502;2023-03-01T01:37:36;10.88;;;5.75;;
23866;SDS011;12114;53.404;-1.502;2023-03-01T01:40:02;9.68;;;5.43;;
23866;SDS011;12114;53.404;-1.502;2023-03-01T01:42:31;13.88;;;5.47;;
23866;SDS011;12114;53.404;-1.502;2023-03-01T01:45:24;11.75;;;5.90;;
23866;SDS011;12114;53.404;-1.502;2023-03-01T01:47:53;10.05;;;5.80;;
23866;SDS011;12114;53.404;-1.502;2023-03-01T01:50:19;11.43;;;5.28;;
23866;SDS011;12114;53.404;-1.502;2023-03-01T01:52:45;12.45;;;5.90;;
23866;SDS011;12114;53.404;-1.502;2023-03-01T01:55:20;9.63;;;4.93;;
23866;SDS011;12114;53.404;-1.502;2023-03-01T01:57:51;16.55;;;5.05;;
23866;SDS011;12114;53.404;-1.502;2023-03-01T02:00:19;12.75;;;5.32;;
23866;SDS011;12114;53.404;-1.502;2023-03-01T02:02:45;11.18;;;4.80;;
23866;SDS011;12114;53.404;-1.502;2023-03-01T02:05:15;19.48;;;5.20;;
23866;SDS011;12114;53.404;-1.502;2023-03-01T02:07:42;13.35;;;4.68;;
23866;SDS011;12114;53.404;-1.502;2023-03-01T02:10:08;7.80;;;4.18;;
23866;SDS011;12114;53.404;-1.502;2023-03-01T02:12:34;11.65;;;5.30;;
23866;SDS011;12114;53.404;-1.502;2023-03-01T02:14:59;10.43;;;5.68;;
23866;SDS011;12114;53.404;-1.502;2023-03-01T02:17:24;11.93;;;6.85;;
23866;SDS011;12114;53.404;-1.502;2023-03-01T02:22:24;14.55;;;7.80;;
23866;SDS011;12114;53.404;-1.502;2023-03-01T02:27:40;16.90;;;8.15;;
23866;SDS011;12114;53.404;-1.502;2023-03-01T02:30:07;13.13;;;8.18;;
23866;SDS011;12114;53.404;-1.502;2023-03-01T02:32:32;11.52;;;6.70;;
23866;SDS011;12114;53.404;-1.502;2023-03-01T02:34:58;12.27;;;6.57;;
23866;SDS011;12114;53.404;-1.502;2023-03-01T02:37:24;11.10;;;5.78;;
23866;SDS011;12114;53.404;-1.502;2023-03-01T02:39:52;8.35;;;5.60;;
23866;SDS011;12114;53.404;-1.502;2023-03-01T02:42:22;7.57;;;4.55;;
23866;SDS011;12114;53.404;-1.502;2023-03-01T02:44:49;8.02;;;5.30;;
23866;SDS011;12114;53.404;-1.502;2023-03-01T02:47:14;7.82;;;4.65;;
23866;SDS011;12114;53.404;-1.502;2023-03-01T02:49:39;11.02;;;6.05;;
23866;SDS011;12114;53.404;-1.502;2023-03-01T02:54:34;9.98;;;5.53;;
23866;SDS011;12114;53.404;-1.502;2023-03-01T02:57:01;11.95;;;5.85;;
23866;SDS011;12114;53.404;-1.502;2023-03-01T02:59:28;13.25;;;5.50;;
23866;SDS011;12114;53.404;-1.502;2023-03-01T03:01:54;7.80;;;4.60;;
23866;SDS011;12114;53.404;-1.502;2023-03-01T03:04:20;9.95;;;5.20;;
23866;SDS011;12114;53.404;-1.502;2023-03-01T03:06:49;13.20;;;5.75;;
23866;SDS011;12114;53.404;-1.502;2023-03-01T03:09:15;9.95;;;5.28;;
23866;SDS011;12114;53.404;-1.502;2023-03-01T03:11:42;10.07;;;4.95;;
23866;SDS011;12114;53.404;-1.502;2023-03-01T03:14:11;12.07;;;5.53;;
23866;SDS011;12114;53.404;-1.502;2023-03-01T03:17:10;7.88;;;5.05;;
23866;SDS011;12114;53.404;-1.502;2023-03-01T03:19:31;7.10;;;4.82;;
23866;SDS011;12114;53.404;-1.502;2023-03-01T03:21:56;10.20;;;4.63;;
23866;SDS011;12114;53.404;-1.502;2023-03-01T03:24:22;9.88;;;5.68;;
23866;SDS011;12114;53.404;-1.502;2023-03-01T03:26:47;9.82;;;5.40;;
23866;SDS011;12114;53.404;-1.502;2023-03-01T03:29:13;11.57;;;6.55;;
23866;SDS011;12114;53.404;-1.502;2023-03-01T03:31:38;8.50;;;5.38;;
23866;SDS011;12114;53.404;-1.502;2023-03-01T03:34:03;12.38;;;6.22;;
23866;SDS011;12114;53.404;-1.502;2023-03-01T03:36:29;9.98;;;6.43;;
23866;SDS011;12114;53.404;-1.502;2023-03-01T03:38:54;11.45;;;5.80;;
23866;SDS011;12114;53.404;-1.502;2023-03-01T03:41:19;12.88;;;6.72;;
23866;SDS011;12114;53.404;-1.502;2023-03-01T03:43:45;10.20;;;6.43;;
23866;SDS011;12114;53.404;-1.502;2023-03-01T03:46:10;13.02;;;7.28;;
23866;SDS011;12114;53.404;-1.502;2023-03-01T03:48:38;14.77;;;7.75;;
23866;SDS011;12114;53.404;-1.502;2023-03-01T03:51:03;13.52;;;7.45;;
23866;SDS011;12114;53.404;-1.502;2023-03-01T03:53:32;10.80;;;5.63;;
23866;SDS011;12114;53.404;-1.502;2023-03-01T03:55:57;8.35;;;5.47;;
23866;SDS011;12114;53.404;-1.502;2023-03-01T03:58:23;6.18;;;4.35;;
23866;SDS011;12114;53.404;-1.502;2023-03-01T04:00:54;7.15;;;3.78;;
23866;SDS011;12114;53.404;-1.502;2023-03-01T04:03:23;9.05;;;3.90;;
23866;SDS011;12114;53.404;-1.502;2023-03-01T04:05:49;6.00;;;3.78;;
23866;SDS011;12114;53.404;-1.502;2023-03-01T04:08:15;11.18;;;5.80;;
23866;SDS011;12114;53.404;-1.502;2023-03-01T04:10:42;10.77;;;6.55;;
23866;SDS011;12114;53.404;-1.502;2023-03-01T04:13:13;11.80;;;7.40;;
23866;SDS011;12114;53.404;-1.502;2023-03-01T04:15:38;16.42;;;8.68;;
23866;SDS011;12114;53.404;-1.502;2023-03-01T04:18:04;16.42;;;9.60;;
23866;SDS011;12114;53.404;-1.502;2023-03-01T04:20:32;14.98;;;9.30;;
23866;SDS011;12114;53.404;-1.502;2023-03-01T04:23:03;14.20;;;9.07;;
23866;SDS011;12114;53.404;-1.502;2023-03-01T04:25:56;15.82;;;9.63;;
23866;SDS011;12114;53.404;-1.502;2023-03-01T04:30:46;21.95;;;10.20;;
23866;SDS011;12114;53.404;-1.502;2023-03-01T04:33:11;19.23;;;9.75;;
23866;SDS011;12114;53.404;-1.502;2023-03-01T04:35:37;13.57;;;9.00;;
23866;SDS011;12114;53.404;-1.502;2023-03-01T04:38:03;17.20;;;9.15;;
23866;SDS011;12114;53.404;-1.502;2023-03-01T04:40:29;16.83;;;10.13;;
23866;SDS011;12114;53.404;-1.502;2023-03-01T04:42:55;15.35;;;9.05;;
23866;SDS011;12114;53.404;-1.502;2023-03-01T04:45:20;14.77;;;9.65;;
23866;SDS011;12114;53.404;-1.502;2023-03-01T04:47:45;13.93;;;8.82;;
23866;SDS011;12114;53.404;-1.502;2023-03-01T04:50:12;12.80;;;8.38;;
23866;SDS011;12114;53.404;-1.502;2023-03-01T04:52:38;12.93;;;8.40;;
23866;SDS011;12114;53.404;-1.502;2023-03-01T04:55:03;9.95;;;6.53;;
23866;SDS011;12114;53.404;-1.502;2023-03-01T04:57:29;14.80;;;8.13;;
23866;SDS011;12114;53.404;-1.502;2023-03-01T04:59:54;11.90;;;6.90;;
23866;SDS011;12114;53.404;-1.502;2023-03-01T05:02:20;10.68;;;6.13;;
23866;SDS011;12114;53.404;-1.502;2023-03-01T05:04:45;10.25;;;6.03;;
23866;SDS011;12114;53.404;-1.502;2023-03-01T05:07:11;8.98;;;4.90;;
23866;SDS011;12114;53.404;-1.502;2023-03-01T05:09:38;6.05;;;4.10;;
23866;SDS011;12114;53.404;-1.502;2023-03-01T05:12:03;6.70;;;4.22;;
23866;SDS011;12114;53.404;-1.502;2023-03-01T05:14:28;7.45;;;4.20;;
23866;SDS011;12114;53.404;-1.502;2023-03-01T05:16:54;6.93;;;4.10;;
23866;SDS011;12114;53.404;-1.502;2023-03-01T05:19:19;8.60;;;3.78;;
23866;SDS011;12114;53.404;-1.502;2023-03-01T05:21:47;9.95;;;4.20;;
23866;SDS011;12114;53.404;-1.502;2023-03-01T05:24:32;10.18;;;4.15;;
23866;SDS011;12114;53.404;-1.502;2023-03-01T05:26:58;13.20;;;5.55;;
23866;SDS011;12114;53.404;-1.502;2023-03-01T05:29:24;12.30;;;6.32;;
23866;SDS011;12114;53.404;-1.502;2023-03-01T05:31:52;11.68;;;6.40;;
23866;SDS011;12114;53.404;-1.502;2023-03-01T05:34:18;11.20;;;6.75;;
23866;SDS011;12114;53.404;-1.502;2023-03-01T05:36:47;10.88;;;6.38;;
23866;SDS011;12114;53.404;-1.502;2023-03-01T05:39:13;9.75;;;5.72;;
23866;SDS011;12114;53.404;-1.502;2023-03-01T05:41:38;7.25;;;5.20;;
23866;SDS011;12114;53.404;-1.502;2023-03-01T05:44:05;8.10;;;4.72;;
23866;SDS011;12114;53.404;-1.502;2023-03-01T05:46:33;8.98;;;5.18;;
23866;SDS011;12114;53.404;-1.502;2023-03-01T05:48:59;10.43;;;5.55;;
23866;SDS011;12114;53.404;-1.502;2023-03-01T05:51:25;10.95;;;5.82;;
23866;SDS011;12114;53.404;-1.502;2023-03-01T05:53:51;13.07;;;7.05;;
23866;SDS011;12114;53.404;-1.502;2023-03-01T05:56:16;12.77;;;6.15;;
23866;SDS011;12114;53.404;-1.502;2023-03-01T05:58:41;11.65;;;6.78;;
23866;SDS011;12114;53.404;-1.502;2023-03-01T06:01:10;10.95;;;6.30;;
23866;SDS011;12114;53.404;-1.502;2023-03-01T06:03:36;10.00;;;6.10;;
23866;SDS011;12114;53.404;-1.502;2023-03-01T06:06:01;10.48;;;5.38;;
23866;SDS011;12114;53.404;-1.502;2023-03-01T06:08:27;8.43;;;4.85;;
23866;SDS011;12114;53.404;-1.502;2023-03-01T06:10:52;8.10;;;4.53;;
23866;SDS011;12114;53.404;-1.502;2023-03-01T06:13:17;6.63;;;4.47;;
23866;SDS011;12114;53.404;-1.502;2023-03-01T06:15:43;8.65;;;4.32;;
23866;SDS011;12114;53.404;-1.502;2023-03-01T06:18:08;8.82;;;4.10;;
23866;SDS011;12114;53.404;-1.502;2023-03-01T06:20:33;11.60;;;4.60;;
23866;SDS011;12114;53.404;-1.502;2023-03-01T06:22:59;10.02;;;5.95;;
23866;SDS011;12114;53.404;-1.502;2023-03-01T06:25:25;10.45;;;6.28;;
23866;SDS011;12114;53.404;-1.502;2023-03-01T06:27:50;10.70;;;6.65;;
23866;SDS011;12114;53.404;-1.502;2023-03-01T06:30:18;13.45;;;7.45;;
23866;SDS011;12114;53.404;-1.502;2023-03-01T06:32:43;14.82;;;7.63;;
23866;SDS011;12114;53.404;-1.502;2023-03-01T06:35:10;19.55;;;8.60;;
23866;SDS011;12114;53.404;-1.502;2023-03-01T06:37:35;19.13;;;8.48;;
23866;SDS011;12114;53.404;-1.502;2023-03-01T06:40:02;14.45;;;7.28;;
23866;SDS011;12114;53.404;-1.502;2023-03-01T06:42:35;13.95;;;7.55;;
23866;SDS011;12114;53.404;-1.502;2023-03-01T06:45:01;14.93;;;6.43;;
23866;SDS011;12114;53.404;-1.502;2023-03-01T06:47:26;12.63;;;5.78;;
23866;SDS011;12114;53.404;-1.502;2023-03-01T06:49:51;13.57;;;5.53;;
23866;SDS011;12114;53.404;-1.502;2023-03-01T06:52:17;13.88;;;5.95;;
23866;SDS011;12114;53.404;-1.502;2023-03-01T06:54:42;13.85;;;5.38;;
23866;SDS011;12114;53.404;-1.502;2023-03-01T06:57:07;10.50;;;5.72;;
23866;SDS011;12114;53.404;-1.502;2023-03-01T06:59:32;9.27;;;5.53;;
23866;SDS011;12114;53.404;-1.502;2023-03-01T07:01:58;12.23;;;6.60;;
23866;SDS011;12114;53.404;-1.502;2023-03-01T07:04:23;12.60;;;7.40;;
23866;SDS011;12114;53.404;-1.502;2023-03-01T07:06:48;16.52;;;7.75;;
23866;SDS011;12114;53.404;-1.502;2023-03-01T07:09:20;12.85;;;7.32;;
23866;SDS011;12114;53.404;-1.502;2023-03-01T07:11:47;12.25;;;7.45;;
23866;SDS011;12114;53.404;-1.502;2023-03-01T07:14:12;11.68;;;7.72;;
23866;SDS011;12114;53.404;-1.502;2023-03-01T07:16:37;14.38;;;8.23;;
23866;SDS011;12114;53.404;-1.502;2023-03-01T07:19:03;13.85;;;8.25;;
23866;SDS011;12114;53.404;-1.502;2023-03-01T07:21:28;14.50;;;7.65;;
23866;SDS011;12114;53.404;-1.502;2023-03-01T07:23:53;14.30;;;6.75;;
23866;SDS011;12114;53.404;-1.502;2023-03-01T07:26:18;12.55;;;6.90;;
23866;SDS011;12114;53.404;-1.502;2023-03-01T07:28:44;15.23;;;6.40;;
23866;SDS011;12114;53.404;-1.502;2023-03-01T07:31:09;12.43;;;5.70;;
23866;SDS011;12114;53.404;-1.502;2023-03-01T07:33:34;10.85;;;5.05;;
23866;SDS011;12114;53.404;-1.502;2023-03-01T07:36:00;11.10;;;5.35;;
23866;SDS011;12114;53.404;-1.502;2023-03-01T07:38:26;11.93;;;5.18;;
23866;SDS011;12114;53.404;-1.502;2023-03-01T07:40:51;9.05;;;5.38;;
23866;SDS011;12114;53.404;-1.502;2023-03-01T07:43:17;10.95;;;4.72;;
23866;SDS011;12114;53.404;-1.502;2023-03-01T07:45:42;9.63;;;4.57;;
23866;SDS011;12114;53.404;-1.502;2023-03-01T07:48:07;7.32;;;4.93;;
23866;SDS011;12114;53.404;-1.502;2023-03-01T07:50:33;8.57;;;4.22;;
23866;SDS011;12114;53.404;-1.502;2023-03-01T07:52:58;13.50;;;4.80;;
23866;SDS011;12114;53.404;-1.502;2023-03-01T07:55:23;10.32;;;4.60;;
23866;SDS011;12114;53.404;-1.502;2023-03-01T07:57:49;11.77;;;4.80;;
23866;SDS011;12114;53.404;-1.502;2023-03-01T08:00:14;12.18;;;5.32;;
23866;SDS011;12114;53.404;-1.502;2023-03-01T08:02:39;9.93;;;4.97;;
23866;SDS011;12114;53.404;-1.502;2023-03-01T08:05:07;9.68;;;5.60;;
23866;SDS011;12114;53.404;-1.502;2023-03-01T08:07:32;8.35;;;4.93;;
23866;SDS011;12114;53.404;-1.502;2023-03-01T08:09:58;10.93;;;4.93;;
23866;SDS011;12114;53.404;-1.502;2023-03-01T08:12:23;12.60;;;4.53;;
23866;SDS011;12114;53.404;-1.502;2023-03-01T08:14:48;9.10;;;4.45;;
23866;SDS011;12114;53.404;-1.502;2023-03-01T08:17:14;14.18;;;6.53;;
23866;SDS011;12114;53.404;-1.502;2023-03-01T08:19:39;12.48;;;5.50;;
23866;SDS011;12114;53.404;-1.502;2023-03-01T08:22:04;11.32;;;4.25;;
23866;SDS011;12114;53.404;-1.502;2023-03-01T08:24:30;9.95;;;4.28;;
23866;SDS011;12114;53.404;-1.502;2023-03-01T08:26:55;8.52;;;2.97;;
23866;SDS011;12114;53.404;-1.502;2023-03-01T08:29:21;12.25;;;4.00;;
23866;SDS011;12114;53.404;-1.502;2023-03-01T08:31:46;10.30;;;3.25;;
23866;SDS011;12114;53.404;-1.502;2023-03-01T08:34:13;8.60;;;2.70;;
23866;SDS011;12114;53.404;-1.502;2023-03-01T08:36:39;9.18;;;2.75;;
23866;SDS011;12114;53.404;-1.502;2023-03-01T08:39:06;11.13;;;2.78;;
23866;SDS011;12114;53.404;-1.502;2023-03-01T08:41:31;9.10;;;2.70;;
23866;SDS011;12114;53.404;-1.502;2023-03-01T08:43:57;4.47;;;1.88;;
23866;SDS011;12114;53.404;-1.502;2023-03-01T08:46:29;6.75;;;2.30;;
23866;SDS011;12114;53.404;-1.502;2023-03-01T08:48:54;7.00;;;2.10;;
23866;SDS011;12114;53.404;-1.502;2023-03-01T08:51:20;6.82;;;2.50;;
23866;SDS011;12114;53.404;-1.502;2023-03-01T08:53:46;6.20;;;2.30;;
23866;SDS011;12114;53.404;-1.502;2023-03-01T08:56:11;6.47;;;2.67;;
23866;SDS011;12114;53.404;-1.502;2023-03-01T08:58:37;8.48;;;3.03;;
23866;SDS011;12114;53.404;-1.502;2023-03-01T09:01:09;10.65;;;2.90;;
23866;SDS011;12114;53.404;-1.502;2023-03-01T09:03:34;9.40;;;2.70;;
23866;SDS011;12114;53.404;-1.502;2023-03-01T09:06:00;6.97;;;2.85;;
23866;SDS011;12114;53.404;-1.502;2023-03-01T09:08:28;8.10;;;2.38;;
23866;SDS011;12114;53.404;-1.502;2023-03-01T09:10:54;7.03;;;2.20;;
23866;SDS011;12114;53.404;-1.502;2023-03-01T09:13:19;4.10;;;1.60;;
23866;SDS011;12114;53.404;-1.502;2023-03-01T09:15:44;6.35;;;2.28;;
23866;SDS011;12114;53.404;-1.502;2023-03-01T09:18:10;7.38;;;2.60;;
23866;SDS011;12114;53.404;-1.502;2023-03-01T09:20:35;9.23;;;2.40;;
23866;SDS011;12114;53.404;-1.502;2023-03-01T09:23:01;5.82;;;2.10;;
23866;SDS011;12114;53.404;-1.502;2023-03-01T09:25:26;6.00;;;1.52;;
23866;SDS011;12114;53.404;-1.502;2023-03-01T09:27:52;5.82;;;1.88;;
23866;SDS011;12114;53.404;-1.502;2023-03-01T09:30:17;6.18;;;2.00;;
23866;SDS011;12114;53.404;-1.502;2023-03-01T09:32:42;10.50;;;2.22;;
23866;SDS011;12114;53.404;-1.502;2023-03-01T09:35:10;4.00;;;1.70;;
23866;SDS011;12114;53.404;-1.502;2023-03-01T09:37:35;5.60;;;1.95;;
23866;SDS011;12114;53.404;-1.502;2023-03-01T09:40:01;5.35;;;1.83;;
23866;SDS011;12114;53.404;-1.502;2023-03-01T09:42:27;5.88;;;2.10;;
23866;SDS011;12114;53.404;-1.502;2023-03-01T09:44:58;7.57;;;2.15;;
23866;SDS011;12114;53.404;-1.502;2023-03-01T09:47:28;9.82;;;2.72;;
23866;SDS011;12114;53.404;-1.502;2023-03-01T09:54:49;6.95;;;3.17;;
23866;SDS011;12114;53.404;-1.502;2023-03-01T09:57:19;5.53;;;2.60;;
23866;SDS011;12114;53.404;-1.502;2023-03-01T10:04:51;12.45;;;3.10;;
23866;SDS011;12114;53.404;-1.502;2023-03-01T10:10:07;6.47;;;2.10;;
23866;SDS011;12114;53.404;-1.502;2023-03-01T10:12:35;5.63;;;1.80;;
23866;SDS011;12114;53.404;-1.502;2023-03-01T10:20:23;10.15;;;2.15;;
23866;SDS011;12114;53.404;-1.502;2023-03-01T10:22:48;6.82;;;2.10;;
23866;SDS011;12114;53.404;-1.502;2023-03-01T10:25:22;10.75;;;2.40;;
23866;SDS011;12114;53.404;-1.502;2023-03-01T10:30:29;6.00;;;2.10;;
23866;SDS011;12114;53.404;-1.502;2023-03-01T10:32:57;6.07;;;2.00;;
23866;SDS011;12114;53.404;-1.502;2023-03-01T10:40:23;3.90;;;1.43;;
23866;SDS011;12114;53.404;-1.502;2023-03-01T10:42:48;4.63;;;1.90;;
23866;SDS011;12114;53.404;-1.502;2023-03-01T10:47:45;6.20;;;2.05;;
23866;SDS011;12114;53.404;-1.502;2023-03-01T10:50:18;4.38;;;1.60;;
23866;SDS011;12114;53.404;-1.502;2023-03-01T10:52:43;6.90;;;2.17;;
23866;SDS011;12114;53.404;-1.502;2023-03-01T10:57:45;5.93;;;1.70;;
23866;SDS011;12114;53.404;-1.502;2023-03-01T11:02:41;5.40;;;1.70;;
23866;SDS011;12114;53.404;-1.502;2023-03-01T11:05:16;4.53;;;1.58;;
23866;SDS011;12114;53.404;-1.502;2023-03-01T11:10:11;3.47;;;1.40;;
23866;SDS011;12114;53.404;-1.502;2023-03-01T11:12:36;7.50;;;1.65;;
23866;SDS011;12114;53.404;-1.502;2023-03-01T11:15:01;5.15;;;1.60;;
23866;SDS011;12114;53.404;-1.502;2023-03-01T11:17:28;3.63;;;1.30;;
23866;SDS011;12114;53.404;-1.502;2023-03-01T11:20:14;7.72;;;2.00;;
23866;SDS011;12114;53.404;-1.502;2023-03-01T11:23:04;3.92;;;1.63;;
23866;SDS011;12114;53.404;-1.502;2023-03-01T11:25:35;6.43;;;1.33;;
23866;SDS011;12114;53.404;-1.502;2023-03-01T11:28:02;5.70;;;1.42;;
23866;SDS011;12114;53.404;-1.502;2023-03-01T11:35:34;7.25;;;2.08;;
23866;SDS011;12114;53.404;-1.502;2023-03-01T11:40:54;7.20;;;2.47;;
23866;SDS011;12114;53.404;-1.502;2023-03-01T11:43:32;9.25;;;2.20;;
23866;SDS011;12114;53.404;-1.502;2023-03-01T11:56:44;6.18;;;1.50;;
23866;SDS011;12114;53.404;-1.502;2023-03-01T12:06:59;5.53;;;1.80;;
23866;SDS011;12114;53.404;-1.502;2023-03-01T12:24:55;5.35;;;1.33;;
23866;SDS011;12114;53.404;-1.502;2023-03-01T12:37:42;3.75;;;1.08;;
23866;SDS011;12114;53.404;-1.502;2023-03-01T12:50:12;4.80;;;1.20;;
23866;SDS011;12114;53.404;-1.502;2023-03-01T12:52:46;10.35;;;1.50;;
23866;SDS011;12114;53.404;-1.502;2023-03-01T12:55:18;6.55;;;2.15;;
23866;SDS011;12114;53.404;-1.502;2023-03-01T13:00:43;5.13;;;1.20;;
23866;SDS011;12114;53.404;-1.502;2023-03-01T13:03:53;7.75;;;1.90;;
23866;SDS011;12114;53.404;-1.502;2023-03-01T13:06:08;8.27;;;2.33;;
23866;SDS011;12114;53.404;-1.502;2023-03-01T13:11:33;6.95;;;1.58;;
23866;SDS011;12114;53.404;-1.502;2023-03-01T13:16:57;6.65;;;1.30;;
23866;SDS011;12114;53.404;-1.502;2023-03-01T13:19:23;5.03;;;1.50;;
23866;SDS011;12114;53.404;-1.502;2023-03-01T13:21:49;6.82;;;1.52;;
23866;SDS011;12114;53.404;-1.502;2023-03-01T13:27:18;12.15;;;1.30;;
23866;SDS011;12114;53.404;-1.502;2023-03-01T13:32:28;5.80;;;1.20;;
23866;SDS011;12114;53.404;-1.502;2023-03-01T13:37:45;5.43;;;1.27;;
23866;SDS011;12114;53.404;-1.502;2023-03-01T13:42:49;6.88;;;1.40;;
23866;SDS011;12114;53.404;-1.502;2023-03-01T13:47:54;6.00;;;1.30;;
23866;SDS011;12114;53.404;-1.502;2023-03-01T13:50:23;3.92;;;1.10;;
23866;SDS011;12114;53.404;-1.502;2023-03-01T13:53:03;5.57;;;0.70;;
23866;SDS011;12114;53.404;-1.502;2023-03-01T13:55:32;6.32;;;0.90;;
23866;SDS011;12114;53.404;-1.502;2023-03-01T13:58:01;5.57;;;0.93;;
23866;SDS011;12114;53.404;-1.502;2023-03-01T14:00:28;5.32;;;1.02;;
23866;SDS011;12114;53.404;-1.502;2023-03-01T14:03:27;5.97;;;1.10;;
23866;SDS011;12114;53.404;-1.502;2023-03-01T14:06:05;5.63;;;1.10;;
23866;SDS011;12114;53.404;-1.502;2023-03-01T14:08:34;4.93;;;1.17;;
23866;SDS011;12114;53.404;-1.502;2023-03-01T14:16:09;3.20;;;0.80;;
23866;SDS011;12114;53.404;-1.502;2023-03-01T14:21:09;5.07;;;1.25;;
23866;SDS011;12114;53.404;-1.502;2023-03-01T14:23:34;4.85;;;1.10;;
23866;SDS011;12114;53.404;-1.502;2023-03-01T14:26:01;7.25;;;1.10;;
23866;SDS011;12114;53.404;-1.502;2023-03-01T14:28:28;2.42;;;0.80;;
23866;SDS011;12114;53.404;-1.502;2023-03-01T14:30:54;8.52;;;1.08;;
23866;SDS011;12114;53.404;-1.502;2023-03-01T14:35:55;6.63;;;0.75;;
23866;SDS011;12114;53.404;-1.502;2023-03-01T14:38:22;4.85;;;1.00;;
23866;SDS011;12114;53.404;-1.502;2023-03-01T14:40:48;9.15;;;1.20;;
23866;SDS011;12114;53.404;-1.502;2023-03-01T14:43:16;7.07;;;0.98;;
23866;SDS011;12114;53.404;-1.502;2023-03-01T14:45:47;5.47;;;1.27;;
23866;SDS011;12114;53.404;-1.502;2023-03-01T14:48:13;4.22;;;1.17;;
23866;SDS011;12114;53.404;-1.502;2023-03-01T14:50:42;7.00;;;1.40;;
23866;SDS011;12114;53.404;-1.502;2023-03-01T14:53:12;5.63;;;1.40;;
23866;SDS011;12114;53.404;-1.502;2023-03-01T14:55:41;7.47;;;1.33;;
23866;SDS011;12114;53.404;-1.502;2023-03-01T14:58:12;7.13;;;1.10;;
23866;SDS011;12114;53.404;-1.502;2023-03-01T15:00:37;6.80;;;0.90;;
23866;SDS011;12114;53.404;-1.502;2023-03-01T15:03:13;5.93;;;1.23;;
23866;SDS011;12114;53.404;-1.502;2023-03-01T15:05:39;8.50;;;1.38;;
23866;SDS011;12114;53.404;-1.502;2023-03-01T15:08:05;5.38;;;1.65;;
23866;SDS011;12114;53.404;-1.502;2023-03-01T15:10:32;4.55;;;0.88;;
23866;SDS011;12114;53.404;-1.502;2023-03-01T15:13:14;4.60;;;0.90;;
23866;SDS011;12114;53.404;-1.502;2023-03-01T15:15:45;6.20;;;1.00;;
23866;SDS011;12114;53.404;-1.502;2023-03-01T15:18:27;6.13;;;1.52;;
23866;SDS011;12114;53.404;-1.502;2023-03-01T15:20:53;6.88;;;1.20;;
23866;SDS011;12114;53.404;-1.502;2023-03-01T15:25:47;10.10;;;1.70;;
23866;SDS011;12114;53.404;-1.502;2023-03-01T15:28:21;5.45;;;1.60;;
23866;SDS011;12114;53.404;-1.502;2023-03-01T15:30:51;8.02;;;1.80;;
23866;SDS011;12114;53.404;-1.502;2023-03-01T15:33:19;4.90;;;1.50;;
23866;SDS011;12114;53.404;-1.502;2023-03-01T15:35:45;5.78;;;1.63;;
23866;SDS011;12114;53.404;-1.502;2023-03-01T15:38:29;5.00;;;1.15;;
23866;SDS011;12114;53.404;-1.502;2023-03-01T15:40:56;6.32;;;1.00;;
23866;SDS011;12114;53.404;-1.502;2023-03-01T15:43:38;4.00;;;0.95;;
23866;SDS011;12114;53.404;-1.502;2023-03-01T15:46:04;6.22;;;0.90;;
23866;SDS011;12114;53.404;-1.502;2023-03-01T15:48:29;5.07;;;1.17;;
23866;SDS011;12114;53.404;-1.502;2023-03-01T15:50:56;8.30;;;1.10;;
23866;SDS011;12114;53.404;-1.502;2023-03-01T15:53:22;6.03;;;1.17;;
23866;SDS011;12114;53.404;-1.502;2023-03-01T15:55:48;8.38;;;1.52;;
23866;SDS011;12114;53.404;-1.502;2023-03-01T16:00:41;4.97;;;1.00;;
23866;SDS011;12114;53.404;-1.502;2023-03-01T16:03:06;3.50;;;1.02;;
23866;SDS011;12114;53.404;-1.502;2023-03-01T16:05:34;3.92;;;0.98;;
23866;SDS011;12114;53.404;-1.502;2023-03-01T16:08:01;2.42;;;0.73;;
23866;SDS011;12114;53.404;-1.502;2023-03-01T16:10:26;6.20;;;1.13;;
23866;SDS011;12114;53.404;-1.502;2023-03-01T16:12:55;4.00;;;0.90;;
23866;SDS011;12114;53.404;-1.502;2023-03-01T16:17:46;5.45;;;1.20;;
23866;SDS011;12114;53.404;-1.502;2023-03-01T16:20:12;4.93;;;0.77;;
23866;SDS011;12114;53.404;-1.502;2023-03-01T16:22:40;9.50;;;1.13;;
23866;SDS011;12114;53.404;-1.502;2023-03-01T16:25:06;8.07;;;1.13;;
23866;SDS011;12114;53.404;-1.502;2023-03-01T16:27:33;6.05;;;0.98;;
23866;SDS011;12114;53.404;-1.502;2023-03-01T16:29:58;11.15;;;1.10;;
23866;SDS011;12114;53.404;-1.502;2023-03-01T16:32:23;8.73;;;1.27;;
23866;SDS011;12114;53.404;-1.502;2023-03-01T16:34:49;5.22;;;1.08;;
23866;SDS011;12114;53.404;-1.502;2023-03-01T16:37:14;5.75;;;1.35;;
23866;SDS011;12114;53.404;-1.502;2023-03-01T16:39:40;4.65;;;1.23;;
23866;SDS011;12114;53.404;-1.502;2023-03-01T16:42:05;5.88;;;1.17;;
23866;SDS011;12114;53.404;-1.502;2023-03-01T16:44:30;5.88;;;1.10;;
23866;SDS011;12114;53.404;-1.502;2023-03-01T16:46:55;4.55;;;1.10;;
23866;SDS011;12114;53.404;-1.502;2023-03-01T16:49:21;10.25;;;1.35;;
23866;SDS011;12114;53.404;-1.502;2023-03-01T16:51:46;3.70;;;1.05;;
23866;SDS011;12114;53.404;-1.502;2023-03-01T16:54:11;5.90;;;0.88;;
23866;SDS011;12114;53.404;-1.502;2023-03-01T16:56:37;3.67;;;1.00;;